Time;durP1;ratioP1;P1;durP2;ratioP2;P2;SDS_P1;SDS_P2;PMS_P1;PMS_P2;Temp;Humidity;BMP_temperature;BMP_pressure;BME280_temperature;BME280_humidity;BME280_pressure;Samples;Min_cycle;Max_cycle;Signal;HPM_P1;HPM_P2
2023/04/01 00:01:29;;;;;;;6.32;2.40;;;10.30;99.90;;;;;;5045973;28;20052;-50
2023/04/01 00:03:55;;;;;;;4.57;2.90;;;10.30;99.90;;;;;;5045849;28;20056;-45
2023/04/01 00:06:21;;;;;;;7.10;2.95;;;10.30;99.90;;;;;;5051913;28;20551;-46
2023/04/01 00:08:47;;;;;;;5.25;2.72;;;10.30;99.90;;;;;;5052167;28;20116;-50
2023/04/01 00:11:13;;;;;;;5.88;3.10;;;10.30;99.90;;;;;;5050585;28;20021;-46
2023/04/01 00:13:39;;;;;;;5.93;2.80;;;10.30;99.90;;;;;;5052012;28;20025;-48
2023/04/01 00:16:05;;;;;;;9.32;3.28;;;10.30;99.90;;;;;;5051866;28;20132;-48
2023/04/01 00:18:30;;;;;;;7.05;3.47;;;10.30;99.90;;;;;;5051837;28;20033;-44
2023/04/01 00:20:56;;;;;;;10.30;3.40;;;10.30;99.90;;;;;;5051799;28;20025;-45
2023/04/01 00:23:22;;;;;;;7.10;3.55;;;10.30;99.90;;;;;;5051867;28;20048;-47
2023/04/01 00:25:49;;;;;;;7.85;3.90;;;10.30;99.90;;;;;;5051450;28;20341;-46
2023/04/01 00:28:17;;;;;;;13.43;4.68;;;10.30;99.90;;;;;;5047741;28;20025;-53
2023/04/01 00:30:42;;;;;;;9.35;4.13;;;10.30;99.90;;;;;;5051659;28;20032;-49
2023/04/01 00:33:08;;;;;;;8.90;3.80;;;10.30;99.90;;;;;;5051494;28;20021;-47
2023/04/01 00:35:34;;;;;;;9.90;4.35;;;10.30;99.90;;;;;;5051009;28;20353;-45
2023/04/01 00:38:00;;;;;;;8.70;3.97;;;10.30;99.90;;;;;;5051535;28;20485;-47
2023/04/01 00:40:33;;;;;;;10.35;3.97;;;10.20;99.90;;;;;;5051148;28;20116;-44
2023/04/01 00:42:59;;;;;;;10.93;4.60;;;10.20;99.90;;;;;;5051343;28;20021;-44
2023/04/01 00:45:37;;;;;;;9.18;3.95;;;10.20;99.90;;;;;;5051484;28;20036;-45
2023/04/01 00:48:10;;;;;;;10.60;3.88;;;10.20;99.90;;;;;;5051187;28;20021;-44
2023/04/01 00:50:38;;;;;;;7.60;3.72;;;10.30;99.90;;;;;;5051263;28;20025;-45
2023/04/01 00:53:06;;;;;;;8.98;3.58;;;10.30;99.90;;;;;;5050987;28;20025;-46
2023/04/01 00:55:35;;;;;;;8.98;3.88;;;10.20;99.90;;;;;;5050982;28;20025;-52
2023/04/01 00:58:05;;;;;;;9.48;3.95;;;10.30;99.90;;;;;;5036857;28;20132;-44
2023/04/01 01:00:32;;;;;;;9.73;4.75;;;10.30;99.90;;;;;;5023800;28;20029;-46
2023/04/01 01:02:57;;;;;;;9.68;4.03;;;10.20;99.90;;;;;;5046137;28;20150;-45
2023/04/01 01:05:36;;;;;;;8.00;3.85;;;10.20;99.90;;;;;;5050974;28;20104;-45
2023/04/01 01:08:14;;;;;;;9.93;4.35;;;10.20;99.90;;;;;;5044825;28;20048;-44
2023/04/01 01:10:39;;;;;;;11.27;4.15;;;10.20;99.90;;;;;;5050423;28;20107;-48
2023/04/01 01:13:38;;;;;;;7.93;3.90;;;10.20;99.90;;;;;;5048187;28;20179;-50
2023/04/01 01:16:09;;;;;;;9.60;4.05;;;10.20;99.90;;;;;;5049166;28;20411;-49
2023/04/01 01:19:10;;;;;;;16.80;4.07;;;10.20;99.90;;;;;;5049490;28;20083;-46
2023/04/01 01:21:56;;;;;;;7.47;3.40;;;10.20;99.90;;;;;;5045754;28;20041;-44
2023/04/01 01:24:33;;;;;;;9.70;3.70;;;10.20;99.90;;;;;;5050655;28;20025;-44
2023/04/01 01:27:04;;;;;;;9.52;3.88;;;10.20;99.90;;;;;;5049585;28;20045;-46
2023/04/01 01:29:59;;;;;;;9.98;5.25;;;10.10;99.90;;;;;;5050688;28;20021;-47
2023/04/01 01:32:53;;;;;;;11.30;4.15;;;10.10;99.90;;;;;;5034792;28;20029;-47
2023/04/01 01:35:24;;;;;;;12.43;4.60;;;10.10;99.90;;;;;;5047102;28;20025;-46
2023/04/01 01:37:56;;;;;;;9.98;4.28;;;10.10;99.90;;;;;;5043307;28;20168;-41
2023/04/01 01:40:25;;;;;;;9.18;3.72;;;10.10;99.90;;;;;;5044338;28;20032;-49
2023/04/01 01:42:56;;;;;;;9.77;3.83;;;10.10;99.90;;;;;;5041571;28;20041;-48
2023/04/01 01:45:24;;;;;;;10.55;4.20;;;10.10;99.90;;;;;;5050551;28;20484;-44
2023/04/01 01:47:51;;;;;;;11.88;4.60;;;10.10;99.90;;;;;;5041714;28;20086;-45
2023/04/01 01:50:18;;;;;;;11.95;4.50;;;10.10;99.90;;;;;;5050497;28;20502;-50
2023/04/01 01:52:43;;;;;;;11.35;4.50;;;10.00;99.90;;;;;;5040575;28;20071;-47
2023/04/01 01:55:37;;;;;;;8.43;4.07;;;10.10;99.90;;;;;;5050425;28;20057;-50
2023/04/01 01:58:26;;;;;;;8.30;4.38;;;10.00;99.90;;;;;;5039050;28;20041;-45
2023/04/01 02:01:05;;;;;;;9.73;4.45;;;10.00;99.90;;;;;;5049848;28;20047;-41
2023/04/01 02:03:35;;;;;;;10.77;4.03;;;10.00;99.90;;;;;;5034641;28;20045;-42
2023/04/01 02:06:05;;;;;;;11.05;4.95;;;10.00;99.90;;;;;;5032137;28;20029;-42
2023/04/01 02:08:36;;;;;;;8.98;4.80;;;10.00;99.90;;;;;;5038845;28;20033;-42
2023/04/01 02:11:08;;;;;;;12.48;5.40;;;10.00;99.90;;;;;;5047783;28;20052;-50
2023/04/01 02:13:39;;;;;;;9.80;4.78;;;10.00;99.90;;;;;;5049648;28;20087;-52
2023/04/01 02:16:34;;;;;;;10.63;5.20;;;10.00;99.90;;;;;;5050291;28;20119;-56
2023/04/01 02:19:06;;;;;;;8.95;4.80;;;10.00;99.90;;;;;;5026297;28;20083;-43
2023/04/01 02:21:33;;;;;;;8.52;4.70;;;10.00;99.90;;;;;;5050073;28;20071;-45
2023/04/01 02:24:02;;;;;;;10.13;4.85;;;10.00;99.90;;;;;;5052964;28;20047;-49
2023/04/01 02:26:27;;;;;;;11.17;4.93;;;10.00;99.90;;;;;;5053710;28;20032;-44
2023/04/01 02:28:56;;;;;;;6.53;4.18;;;10.10;99.90;;;;;;5053862;28;20032;-42
2023/04/01 02:31:23;;;;;;;12.45;4.43;;;10.00;99.90;;;;;;5053864;28;20067;-44
2023/04/01 02:33:49;;;;;;;12.23;4.45;;;10.00;99.90;;;;;;5053950;28;20021;-46
2023/04/01 02:36:15;;;;;;;12.95;4.95;;;10.00;99.90;;;;;;5053237;28;20127;-42
2023/04/01 02:38:43;;;;;;;8.38;4.30;;;10.00;99.90;;;;;;5053787;28;20021;-49
2023/04/01 02:41:09;;;;;;;9.32;4.57;;;10.00;99.90;;;;;;5052241;28;20155;-49
2023/04/01 02:43:35;;;;;;;8.45;4.60;;;10.00;99.90;;;;;;5044247;28;20124;-42
2023/04/01 02:46:01;;;;;;;9.35;4.50;;;10.00;99.90;;;;;;5053727;28;20029;-47
2023/04/01 02:48:27;;;;;;;7.97;4.20;;;10.00;99.90;;;;;;5052236;28;20481;-45
2023/04/01 02:50:53;;;;;;;11.15;4.70;;;10.00;99.90;;;;;;5042566;28;20688;-51
2023/04/01 02:53:18;;;;;;;11.88;4.63;;;10.00;99.90;;;;;;5053498;28;20021;-53
2023/04/01 02:55:44;;;;;;;8.45;4.53;;;10.00;99.90;;;;;;5053209;28;20194;-47
2023/04/01 02:58:10;;;;;;;10.88;4.72;;;10.00;99.90;;;;;;5053614;28;20383;-45
2023/04/01 03:00:36;;;;;;;13.00;4.95;;;10.00;99.90;;;;;;5053351;28;20543;-49
2023/04/01 03:03:02;;;;;;;9.23;4.63;;;10.00;99.90;;;;;;5053436;28;20025;-53
2023/04/01 03:05:28;;;;;;;10.25;4.43;;;10.00;99.90;;;;;;5052950;28;20032;-42
2023/04/01 03:07:54;;;;;;;8.20;4.28;;;10.00;99.90;;;;;;5053267;28;20025;-42
2023/04/01 03:10:20;;;;;;;11.02;4.65;;;10.00;99.90;;;;;;5053178;28;20025;-48
2023/04/01 03:12:45;;;;;;;10.27;4.63;;;10.00;99.90;;;;;;5051530;28;20048;-47
2023/04/01 03:15:14;;;;;;;10.23;4.75;;;10.00;99.90;;;;;;5053033;28;20499;-48
2023/04/01 03:17:40;;;;;;;11.85;4.95;;;10.00;99.90;;;;;;5052862;28;20474;-56
2023/04/01 03:20:08;;;;;;;9.93;4.28;;;9.90;99.90;;;;;;5052794;28;20472;-45
2023/04/01 03:22:34;;;;;;;10.43;4.15;;;10.00;99.90;;;;;;5053057;28;20032;-49
2023/04/01 03:25:01;;;;;;;10.68;4.05;;;10.00;99.90;;;;;;5052589;28;20629;-51
2023/04/01 03:27:26;;;;;;;10.63;3.97;;;10.00;99.90;;;;;;5052909;28;20472;-44
2023/04/01 03:29:52;;;;;;;7.40;4.18;;;9.90;99.90;;;;;;5052788;28;20051;-47
2023/04/01 03:32:18;;;;;;;6.80;3.65;;;10.00;99.90;;;;;;5052502;28;20032;-43
2023/04/01 03:34:44;;;;;;;12.13;3.92;;;10.00;99.90;;;;;;5052891;28;20316;-48
2023/04/01 03:37:10;;;;;;;9.65;4.15;;;10.00;99.90;;;;;;5052324;28;20037;-47
2023/04/01 03:39:35;;;;;;;7.43;3.60;;;10.00;99.90;;;;;;5052698;28;20423;-46
2023/04/01 03:42:01;;;;;;;7.85;4.05;;;10.00;99.90;;;;;;5045873;28;20500;-44
2023/04/01 03:44:30;;;;;;;8.80;3.70;;;10.00;99.90;;;;;;5040371;28;20029;-48
2023/04/01 03:46:56;;;;;;;5.53;3.63;;;10.00;99.90;;;;;;5052314;28;20468;-46
2023/04/01 03:49:22;;;;;;;9.32;3.70;;;9.90;99.90;;;;;;5046513;28;20020;-47
2023/04/01 03:51:47;;;;;;;5.32;3.10;;;10.00;99.90;;;;;;5043017;28;20098;-55
2023/04/01 03:54:13;;;;;;;7.80;3.65;;;10.00;99.90;;;;;;5052139;28;20109;-54
2023/04/01 03:56:39;;;;;;;5.57;3.08;;;10.00;99.90;;;;;;5052364;28;20032;-43
2023/04/01 03:59:07;;;;;;;6.45;3.47;;;9.90;99.90;;;;;;5052162;28;20376;-47
2023/04/01 04:01:33;;;;;;;6.55;3.15;;;10.00;99.90;;;;;;5043932;28;20025;-43
2023/04/01 04:03:59;;;;;;;8.00;3.13;;;10.00;99.90;;;;;;5052230;28;20039;-46
2023/04/01 04:06:25;;;;;;;4.75;3.00;;;10.00;99.90;;;;;;5051943;28;20083;-49
2023/04/01 04:08:51;;;;;;;7.85;3.20;;;10.00;99.90;;;;;;5024349;28;20028;-51
2023/04/01 04:11:18;;;;;;;8.10;3.45;;;10.00;99.90;;;;;;5047440;28;20396;-49
2023/04/01 04:13:43;;;;;;;6.65;2.90;;;10.00;99.90;;;;;;5043019;28;20021;-51
2023/04/01 04:16:09;;;;;;;4.75;3.05;;;10.00;99.90;;;;;;5041412;28;20369;-49
2023/04/01 04:18:36;;;;;;;5.38;2.72;;;10.00;99.90;;;;;;5051914;28;20056;-53
2023/04/01 04:21:02;;;;;;;6.38;3.22;;;10.00;99.90;;;;;;5052023;28;20029;-45
2023/04/01 04:23:29;;;;;;;5.50;2.72;;;10.00;99.90;;;;;;5052046;28;20387;-54
2023/04/01 04:26:00;;;;;;;5.50;2.95;;;10.00;99.90;;;;;;5051589;28;20024;-51
2023/04/01 04:28:26;;;;;;;5.65;3.40;;;9.90;99.90;;;;;;5051580;28;20480;-60
2023/04/01 04:30:53;;;;;;;6.63;3.13;;;10.00;99.90;;;;;;5051663;28;20028;-56
2023/04/01 04:33:19;;;;;;;4.80;2.50;;;10.00;99.90;;;;;;5051546;28;20024;-43
2023/04/01 04:35:44;;;;;;;5.32;2.70;;;10.00;99.90;;;;;;5051351;28;20052;-51
2023/04/01 04:38:10;;;;;;;6.80;2.78;;;10.00;99.90;;;;;;5051404;28;20053;-47
2023/04/01 04:40:37;;;;;;;5.30;2.40;;;10.00;99.90;;;;;;5051453;28;20021;-49
2023/04/01 04:43:03;;;;;;;6.03;2.80;;;10.00;99.90;;;;;;5046261;28;20025;-43
2023/04/01 04:45:28;;;;;;;6.72;2.63;;;10.00;99.90;;;;;;5050807;28;20104;-48
2023/04/01 04:47:54;;;;;;;5.53;3.03;;;10.00;99.90;;;;;;5030268;28;20022;-42
2023/04/01 04:50:20;;;;;;;5.03;2.20;;;9.90;99.90;;;;;;5026091;28;20029;-43
2023/04/01 04:52:46;;;;;;;6.13;3.03;;;10.00;99.90;;;;;;5027630;28;20404;-42
2023/04/01 04:55:11;;;;;;;4.95;2.13;;;10.00;99.90;;;;;;5032753;28;20092;-42
2023/04/01 04:57:37;;;;;;;2.67;2.05;;;10.00;99.90;;;;;;5033258;28;20029;-48
2023/04/01 05:00:03;;;;;;;5.03;2.00;;;9.90;99.90;;;;;;5030058;28;20045;-50
2023/04/01 05:02:29;;;;;;;3.83;2.17;;;9.90;99.90;;;;;;5031135;28;20022;-43
2023/04/01 05:04:55;;;;;;;3.38;2.13;;;9.90;99.90;;;;;;5029737;28;20029;-48
2023/04/01 05:07:20;;;;;;;2.80;1.98;;;9.80;99.90;;;;;;5031072;28;20112;-49
2023/04/01 05:09:46;;;;;;;4.45;1.73;;;9.80;99.90;;;;;;5039458;28;20418;-50
2023/04/01 05:12:12;;;;;;;3.33;2.00;;;9.80;99.90;;;;;;5049730;28;20017;-50
2023/04/01 05:14:39;;;;;;;3.78;1.98;;;9.80;99.90;;;;;;5051008;28;20021;-53
2023/04/01 05:17:11;;;;;;;3.88;2.30;;;9.80;99.90;;;;;;5042071;28;20064;-44
2023/04/01 05:19:38;;;;;;;3.25;2.20;;;9.70;99.90;;;;;;5050702;28;20021;-52
2023/04/01 05:22:04;;;;;;;4.72;2.42;;;9.80;99.90;;;;;;5050825;28;20029;-44
2023/04/01 05:24:30;;;;;;;3.95;2.50;;;9.80;99.90;;;;;;5042580;28;20030;-47
2023/04/01 05:26:57;;;;;;;4.15;2.58;;;9.80;99.90;;;;;;5050579;28;20041;-50
2023/04/01 05:29:23;;;;;;;4.55;2.83;;;9.70;99.90;;;;;;5050570;28;20045;-47
2023/04/01 05:31:49;;;;;;;3.90;2.30;;;9.70;99.90;;;;;;5050504;28;20024;-43
2023/04/01 05:34:14;;;;;;;4.20;2.85;;;9.70;99.90;;;;;;5050414;28;20029;-44
2023/04/01 05:36:41;;;;;;;5.65;3.45;;;9.60;99.90;;;;;;5050440;28;20059;-42
2023/04/01 05:39:07;;;;;;;5.63;3.30;;;9.70;99.90;;;;;;5050421;28;20052;-44
2023/04/01 05:41:36;;;;;;;5.80;3.53;;;9.60;99.90;;;;;;5046141;28;20064;-45
2023/04/01 05:44:02;;;;;;;5.45;3.38;;;9.60;99.90;;;;;;5049441;28;20029;-43
2023/04/01 05:46:28;;;;;;;10.55;3.50;;;9.60;99.90;;;;;;5050258;28;20025;-48
2023/04/01 05:48:53;;;;;;;6.30;3.85;;;9.60;99.90;;;;;;5050536;28;20083;-43
2023/04/01 05:51:19;;;;;;;6.10;3.90;;;9.60;99.90;;;;;;5050358;28;20033;-43
2023/04/01 05:53:45;;;;;;;6.03;4.45;;;9.50;99.90;;;;;;5050468;28;20048;-43
2023/04/01 05:56:10;;;;;;;8.82;3.78;;;9.60;99.90;;;;;;5049975;28;20036;-50
2023/04/01 05:58:37;;;;;;;6.43;4.03;;;9.60;99.90;;;;;;5052770;28;20029;-50
2023/04/01 06:01:09;;;;;;;5.43;3.47;;;9.60;99.90;;;;;;5054442;28;20029;-51
2023/04/01 06:03:35;;;;;;;6.38;4.20;;;9.60;99.90;;;;;;5041566;28;20105;-45
2023/04/01 06:06:03;;;;;;;6.72;3.90;;;9.60;99.90;;;;;;5047572;28;20116;-43
2023/04/01 06:08:31;;;;;;;6.07;4.15;;;9.60;99.90;;;;;;5050054;28;20025;-49
2023/04/01 06:11:24;;;;;;;5.90;4.05;;;9.60;99.90;;;;;;5047915;28;20012;-48
2023/04/01 06:14:11;;;;;;;5.35;3.92;;;9.60;99.90;;;;;;5031986;28;20037;-44
2023/04/01 06:16:58;;;;;;;7.45;4.32;;;9.60;99.90;;;;;;5054050;28;20033;-46
2023/04/01 06:19:37;;;;;;;6.85;4.53;;;9.60;99.90;;;;;;5051622;28;20048;-43
2023/04/01 06:22:13;;;;;;;6.53;4.40;;;9.70;99.90;;;;;;5054223;28;20025;-43
2023/04/01 06:24:59;;;;;;;9.20;4.43;;;9.70;99.90;;;;;;5053749;28;20060;-43
2023/04/01 06:27:52;;;;;;;7.70;4.63;;;9.70;99.90;;;;;;5053800;28;20388;-44
2023/04/01 06:30:35;;;;;;;9.13;4.97;;;9.70;99.90;;;;;;5053925;28;20476;-43
2023/04/01 06:33:07;;;;;;;7.07;4.72;;;9.70;99.90;;;;;;5053767;28;20070;-46
2023/04/01 06:35:45;;;;;;;8.18;4.88;;;9.70;99.90;;;;;;5053735;28;20499;-46
2023/04/01 06:38:32;;;;;;;8.32;5.15;;;9.80;99.90;;;;;;5053612;28;20792;-44
2023/04/01 06:40:58;;;;;;;10.18;4.95;;;9.80;99.90;;;;;;5052310;28;20025;-49
2023/04/01 06:43:58;;;;;;;8.68;5.05;;;9.90;99.90;;;;;;5030443;28;20031;-45
2023/04/01 06:46:39;;;;;;;7.82;4.70;;;9.90;99.90;;;;;;5033714;28;20021;-43
2023/04/01 06:49:28;;;;;;;8.27;5.38;;;10.00;99.90;;;;;;5033423;28;20025;-43
2023/04/01 06:52:11;;;;;;;8.75;5.18;;;10.00;99.90;;;;;;5033326;28;20022;-50
2023/04/01 06:54:45;;;;;;;10.52;5.38;;;10.10;99.90;;;;;;5027281;28;20037;-48
2023/04/01 06:57:34;;;;;;;7.05;4.72;;;10.20;99.90;;;;;;5033214;28;20030;-48
2023/04/01 07:00:03;;;;;;;8.75;4.90;;;10.20;99.90;;;;;;5033342;28;20033;-45
2023/04/01 07:02:44;;;;;;;10.10;5.03;;;10.30;99.90;;;;;;5033214;28;20022;-49
2023/04/01 07:05:12;;;;;;;8.07;4.85;;;10.30;99.90;;;;;;5033009;28;20026;-45
2023/04/01 07:07:43;;;;;;;9.40;4.75;;;10.30;99.90;;;;;;5033044;28;20025;-45
2023/04/01 07:10:47;;;;;;;7.43;5.03;;;10.40;99.90;;;;;;5036715;28;20021;-44
2023/04/01 07:13:28;;;;;;;7.38;4.93;;;10.50;99.90;;;;;;5036385;28;20124;-45
2023/04/01 07:16:18;;;;;;;8.48;5.43;;;10.60;99.90;;;;;;5050797;28;20024;-47
2023/04/01 07:19:12;;;;;;;7.15;5.00;;;10.70;99.90;;;;;;5052995;28;20068;-46
2023/04/01 07:21:43;;;;;;;7.78;5.05;;;10.80;99.90;;;;;;5052822;28;20032;-46
2023/04/01 07:24:20;;;;;;;7.47;4.93;;;10.90;99.90;;;;;;5053036;28;20059;-43
2023/04/01 07:26:48;;;;;;;6.60;4.85;;;11.00;99.90;;;;;;5052815;28;20028;-44
2023/04/01 07:29:14;;;;;;;7.05;4.90;;;11.10;99.90;;;;;;5052587;28;20048;-46
2023/04/01 07:31:45;;;;;;;7.20;4.90;;;11.10;99.90;;;;;;5052751;28;20025;-54
2023/04/01 07:34:31;;;;;;;7.18;4.65;;;11.00;99.90;;;;;;5052619;28;20025;-47
2023/04/01 07:37:03;;;;;;;8.20;4.55;;;11.00;99.90;;;;;;5052559;28;20064;-43
2023/04/01 07:39:58;;;;;;;6.45;4.13;;;11.00;99.90;;;;;;5050734;28;20033;-41
2023/04/01 07:42:48;;;;;;;7.72;3.90;;;11.00;99.90;;;;;;5043702;28;20078;-48
2023/04/01 07:45:42;;;;;;;8.32;4.95;;;11.20;99.90;;;;;;5052430;28;20055;-42
2023/04/01 07:48:10;;;;;;;7.10;3.83;;;11.40;99.90;;;;;;5052400;28;20028;-50
2023/04/01 07:50:46;;;;;;;5.13;3.00;;;11.50;99.90;;;;;;5052314;28;20021;-43
2023/04/01 07:53:27;;;;;;;4.57;2.92;;;11.50;99.90;;;;;;5052185;28;20057;-43
2023/04/01 07:56:15;;;;;;;5.53;3.20;;;11.40;99.90;;;;;;5044337;28;20540;-49
2023/04/01 07:59:18;;;;;;;8.15;3.80;;;11.20;99.90;;;;;;5037071;28;20124;-48
2023/04/01 08:01:59;;;;;;;4.55;2.90;;;11.20;99.90;;;;;;5028683;28;20495;-45
2023/04/01 08:05:09;;;;;;;6.47;3.67;;;11.20;99.90;;;;;;5031995;28;20025;-48
2023/04/01 08:07:41;;;;;;;6.07;3.40;;;11.30;99.90;;;;;;5023066;28;20432;-42
2023/04/01 08:10:33;;;;;;;5.22;3.13;;;11.30;99.90;;;;;;5036536;28;20029;-47
2023/04/01 08:13:13;;;;;;;5.05;3.08;;;11.30;99.90;;;;;;5033259;28;20047;-46
2023/04/01 08:15:52;;;;;;;5.80;3.33;;;11.20;99.90;;;;;;5040052;28;20025;-47
2023/04/01 08:18:29;;;;;;;6.03;3.50;;;11.20;99.90;;;;;;5031675;28;20037;-45
2023/04/01 08:21:01;;;;;;;6.93;3.47;;;11.20;99.90;;;;;;5029585;28;20095;-45
2023/04/01 08:23:38;;;;;;;6.32;3.42;;;11.20;99.90;;;;;;5029861;28;20029;-44
2023/04/01 08:26:26;;;;;;;6.10;3.50;;;11.20;99.90;;;;;;5029898;28;20025;-47
2023/04/01 08:28:51;;;;;;;4.97;3.22;;;11.10;99.90;;;;;;5028866;28;20025;-42
2023/04/01 08:31:23;;;;;;;5.55;3.70;;;10.90;99.90;;;;;;5030595;28;21502;-43
2023/04/01 08:33:52;;;;;;;8.88;3.83;;;10.80;99.90;;;;;;5031558;28;20029;-48
2023/04/01 08:36:32;;;;;;;5.00;3.30;;;10.80;99.90;;;;;;5030953;28;20073;-42
2023/04/01 08:39:05;;;;;;;5.80;3.10;;;10.70;99.90;;;;;;5031317;28;20051;-51
2023/04/01 08:41:34;;;;;;;6.15;3.25;;;10.70;99.90;;;;;;5029562;28;20041;-43
2023/04/01 08:44:25;;;;;;;5.50;3.13;;;10.70;99.90;;;;;;5028720;28;20447;-48
2023/04/01 08:47:15;;;;;;;4.40;2.50;;;10.90;99.90;;;;;;5030870;28;20036;-48
2023/04/01 08:50:01;;;;;;;4.90;2.42;;;11.20;99.90;;;;;;5026982;28;20058;-42
2023/04/01 08:53:03;;;;;;;4.85;3.00;;;11.60;99.90;;;;;;5016550;28;20022;-43
2023/04/01 08:55:38;;;;;;;6.20;2.85;;;12.20;99.90;;;;;;5030237;28;20036;-49
2023/04/01 08:58:07;;;;;;;5.18;3.33;;;12.70;99.90;;;;;;5030764;28;20163;-43
2023/04/01 09:00:32;;;;;;;7.35;3.72;;;12.70;99.90;;;;;;5030903;28;20021;-44
2023/04/01 09:03:23;;;;;;;6.43;3.67;;;12.80;99.90;;;;;;5030585;28;20424;-49
2023/04/01 09:06:09;;;;;;;6.57;3.63;;;12.80;99.90;;;;;;5020438;28;20029;-48
2023/04/01 09:09:02;;;;;;;5.13;3.55;;;12.60;99.90;;;;;;5027436;28;20029;-43
2023/04/01 09:11:28;;;;;;;5.85;3.97;;;12.70;99.90;;;;;;5023037;28;20028;-48
2023/04/01 09:14:10;;;;;;;5.43;3.67;;;12.50;99.90;;;;;;5036378;28;20022;-45
2023/04/01 09:16:47;;;;;;;8.52;4.00;;;12.50;99.90;;;;;;5038422;28;20385;-48
2023/04/01 09:19:28;;;;;;;6.80;4.22;;;12.40;99.90;;;;;;5030538;28;20234;-46
2023/04/01 09:22:01;;;;;;;7.80;4.38;;;12.30;99.90;;;;;;5030506;28;20031;-49
2023/04/01 09:24:57;;;;;;;6.97;4.13;;;12.00;99.90;;;;;;5030435;28;20492;-47
2023/04/01 09:27:44;;;;;;;7.22;4.53;;;12.00;99.90;;;;;;5028042;28;20057;-51
2023/04/01 09:30:33;;;;;;;6.88;4.30;;;11.90;99.90;;;;;;5027639;28;20025;-45
2023/04/01 09:33:28;;;;;;;6.72;4.00;;;11.90;99.90;;;;;;5030199;28;20123;-43
2023/04/01 09:36:23;;;;;;;7.50;4.63;;;12.00;99.90;;;;;;5024247;28;20095;-44
2023/04/01 09:39:30;;;;;;;7.10;4.30;;;12.10;99.90;;;;;;5030463;28;20366;-52
2023/04/01 09:42:29;;;;;;;9.02;4.80;;;12.00;99.90;;;;;;5029471;28;20038;-45
2023/04/01 09:45:01;;;;;;;6.30;4.40;;;11.90;99.90;;;;;;5030566;28;20031;-46
2023/04/01 09:47:38;;;;;;;6.78;4.60;;;11.70;99.90;;;;;;5030254;28;20112;-52
2023/04/01 09:50:37;;;;;;;5.93;4.38;;;11.70;99.90;;;;;;5030653;28;20017;-43
2023/04/01 09:53:21;;;;;;;9.20;4.90;;;11.70;99.90;;;;;;5007370;28;20061;-48
2023/04/01 09:56:14;;;;;;;8.52;5.20;;;11.60;99.90;;;;;;5030145;28;20271;-48
2023/04/01 09:58:46;;;;;;;7.35;4.40;;;11.40;99.90;;;;;;5029642;28;20087;-49
2023/04/01 10:01:33;;;;;;;7.70;4.47;;;11.30;99.90;;;;;;5022224;28;20096;-43
2023/04/01 10:04:01;;;;;;;6.22;3.67;;;11.30;99.90;;;;;;5025649;28;20121;-47
2023/04/01 10:07:05;;;;;;;8.73;4.07;;;11.30;99.90;;;;;;5030149;28;20354;-52
2023/04/01 10:09:45;;;;;;;6.75;4.45;;;11.30;99.90;;;;;;5035496;28;20029;-43
2023/04/01 10:12:31;;;;;;;7.07;3.72;;;11.50;99.90;;;;;;5039858;28;20036;-47
2023/04/01 10:15:30;;;;;;;6.20;3.65;;;11.60;99.90;;;;;;5040420;28;20051;-48
2023/04/01 10:18:26;;;;;;;5.93;3.67;;;11.70;99.90;;;;;;5021973;28;20045;-43
2023/04/01 10:21:01;;;;;;;5.88;3.20;;;11.90;99.90;;;;;;5026112;28;20052;-43
2023/04/01 10:23:45;;;;;;;8.07;3.50;;;12.10;99.90;;;;;;5026958;28;20052;-48
2023/04/01 10:26:41;;;;;;;5.60;3.17;;;12.30;99.90;;;;;;5029081;28;20022;-49
2023/04/01 10:29:44;;;;;;;5.60;3.10;;;12.60;99.90;;;;;;5024359;28;20032;-45
2023/04/01 10:32:44;;;;;;;6.57;3.20;;;12.80;99.90;;;;;;5030026;28;20029;-54
2023/04/01 10:35:41;;;;;;;7.55;3.33;;;12.60;99.90;;;;;;5030141;28;20025;-48
2023/04/01 10:38:34;;;;;;;5.88;3.00;;;12.70;99.90;;;;;;5029609;28;20041;-48
2023/04/01 10:41:17;;;;;;;4.28;3.00;;;12.70;99.90;;;;;;5023655;28;20076;-44
2023/04/01 10:44:09;;;;;;;5.55;3.20;;;12.90;99.90;;;;;;5026775;28;20061;-44
2023/04/01 10:47:05;;;;;;;4.70;3.30;;;12.90;99.90;;;;;;5033262;28;20036;-44
2023/04/01 10:50:09;;;;;;;4.82;3.10;;;13.10;99.90;;;;;;5027569;28;20109;-48
2023/04/01 10:52:57;;;;;;;5.47;3.20;;;13.20;99.90;;;;;;5033280;28;20115;-44
2023/04/01 10:56:17;;;;;;;5.80;3.35;;;13.50;99.90;;;;;;5033519;28;20459;-43
2023/04/01 10:58:49;;;;;;;4.80;2.92;;;13.70;99.90;;;;;;5032305;28;20057;-43
2023/04/01 11:01:52;;;;;;;4.72;2.58;;;14.60;99.90;;;;;;5025743;28;20116;-53
2023/04/01 11:05:06;;;;;;;3.25;2.40;;;15.60;99.90;;;;;;5032949;28;20021;-53
2023/04/01 11:08:03;;;;;;;3.63;2.40;;;16.00;99.90;;;;;;5032952;28;20518;-52
2023/04/01 11:10:47;;;;;;;3.63;2.40;;;15.50;99.90;;;;;;5047508;28;20475;-48
2023/04/01 11:13:34;;;;;;;3.85;2.60;;;14.90;99.90;;;;;;5042496;28;20032;-44
2023/04/01 11:15:59;;;;;;;4.50;2.90;;;14.40;99.90;;;;;;5051693;28;20043;-50
2023/04/01 11:18:31;;;;;;;4.63;2.65;;;14.30;99.90;;;;;;5043014;28;20365;-53
2023/04/01 11:21:20;;;;;;;4.75;2.90;;;14.10;99.90;;;;;;5052422;28;20028;-49
2023/04/01 11:24:00;;;;;;;4.63;2.95;;;13.90;99.90;;;;;;5032349;28;20041;-47
2023/04/01 11:26:50;;;;;;;8.80;2.88;;;14.20;99.90;;;;;;5051731;28;20025;-46
2023/04/01 11:29:49;;;;;;;4.50;2.70;;;14.50;99.90;;;;;;5042413;28;20100;-49
2023/04/01 11:32:43;;;;;;;5.85;2.50;;;15.10;99.90;;;;;;5041084;28;20024;-45
2023/04/01 11:35:27;;;;;;;4.70;2.22;;;15.40;99.90;;;;;;5027880;28;20148;-51
2023/04/01 11:38:22;;;;;;;5.10;2.40;;;15.30;99.90;;;;;;5037643;28;20046;-53
2023/04/01 11:41:06;;;;;;;4.47;2.60;;;15.30;99.90;;;;;;5044484;28;20025;-48
2023/04/01 11:43:58;;;;;;;5.43;2.35;;;15.00;99.90;;;;;;5052510;28;20055;-45
2023/04/01 11:46:47;;;;;;;6.35;2.97;;;14.60;99.90;;;;;;5049777;28;20030;-47
2023/04/01 11:49:40;;;;;;;4.85;2.60;;;14.30;99.90;;;;;;5052610;28;20025;-48
2023/04/01 11:52:23;;;;;;;4.88;2.70;;;14.00;99.90;;;;;;5045933;28;20029;-43
2023/04/01 11:55:10;;;;;;;3.97;2.13;;;14.00;99.90;;;;;;5032173;28;20048;-48
2023/04/01 11:58:02;;;;;;;4.75;2.70;;;14.10;99.90;;;;;;5031845;28;20049;-43
2023/04/01 12:00:56;;;;;;;5.95;2.40;;;14.30;99.90;;;;;;5021701;28;20040;-43
2023/04/01 12:03:52;;;;;;;4.32;2.53;;;14.40;99.90;;;;;;5016996;28;20040;-46
2023/04/01 12:06:45;;;;;;;4.82;2.30;;;15.00;99.90;;;;;;5031415;28;20024;-46
2023/04/01 12:09:35;;;;;;;5.65;2.53;;;16.10;99.90;;;;;;5025655;28;20064;-43
2023/04/01 12:12:29;;;;;;;6.13;2.22;;;17.10;99.90;;;;;;5041534;28;20036;-43
2023/04/01 12:15:18;;;;;;;3.95;2.40;;;17.20;99.90;;;;;;5023228;28;20041;-43
2023/04/01 12:17:52;;;;;;;4.43;2.30;;;17.30;99.90;;;;;;5029699;28;20037;-43
2023/04/01 12:20:35;;;;;;;4.20;2.30;;;16.20;99.90;;;;;;5031610;28;20090;-48
2023/04/01 12:23:28;;;;;;;3.60;2.30;;;15.80;99.90;;;;;;5031214;28;20021;-54
2023/04/01 12:25:56;;;;;;;4.10;2.15;;;15.90;99.90;;;;;;5026860;28;20546;-47
2023/04/01 12:28:43;;;;;;;5.80;2.83;;;16.30;99.90;;;;;;5031207;28;20117;-54
2023/04/01 12:31:36;;;;;;;4.93;3.00;;;16.20;99.90;;;;;;5031255;28;20037;-50
2023/04/01 12:34:30;;;;;;;5.53;3.35;;;16.00;99.90;;;;;;5023811;28;20477;-48
2023/04/01 12:37:25;;;;;;;4.93;3.45;;;15.80;99.90;;;;;;5031122;28;20049;-47
2023/04/01 12:40:04;;;;;;;6.43;3.72;;;15.80;99.90;;;;;;5031124;28;20014;-49
2023/04/01 12:43:24;;;;;;;5.18;3.20;;;15.60;99.90;;;;;;5024484;28;20029;-45
2023/04/01 12:46:19;;;;;;;4.82;3.30;;;16.20;99.90;;;;;;5020666;28;20033;-45
2023/04/01 12:49:15;;;;;;;5.93;2.65;;;17.50;99.90;;;;;;5021578;28;20037;-49
2023/04/01 12:51:59;;;;;;;4.68;2.33;;;18.20;98.00;;;;;;5031099;28;20280;-46
2023/04/01 12:54:46;;;;;;;4.18;2.38;;;19.30;94.20;;;;;;5023775;28;20022;-43
2023/04/01 12:57:23;;;;;;;3.65;2.15;;;17.90;93.50;;;;;;5030772;28;20440;-48
2023/04/01 13:00:17;;;;;;;4.45;2.30;;;17.70;94.70;;;;;;5031099;28;20029;-46
2023/04/01 13:02:51;;;;;;;4.65;2.80;;;17.00;96.20;;;;;;5030839;28;20037;-43
2023/04/01 13:05:54;;;;;;;3.58;2.30;;;16.70;96.20;;;;;;5030426;28;20030;-43
2023/04/01 13:08:56;;;;;;;7.45;2.30;;;16.30;97.60;;;;;;5030469;28;20025;-43
2023/04/01 13:11:38;;;;;;;3.78;2.10;;;16.60;97.90;;;;;;5023646;28;20091;-52
2023/04/01 13:14:23;;;;;;;4.38;2.15;;;17.60;96.60;;;;;;5046728;28;20020;-48
2023/04/01 13:16:54;;;;;;;4.53;2.30;;;17.00;95.00;;;;;;5050759;28;20047;-44
2023/04/01 13:19:35;;;;;;;4.00;1.75;;;16.70;95.70;;;;;;5050289;28;20032;-43
2023/04/01 13:22:13;;;;;;;5.55;2.47;;;17.50;96.60;;;;;;5050655;28;20032;-45
2023/04/01 13:25:05;;;;;;;4.95;2.38;;;17.90;93.00;;;;;;5043067;28;20021;-43
2023/04/01 13:27:40;;;;;;;4.00;2.00;;;17.30;93.50;;;;;;5021528;28;20025;-43
2023/04/01 13:30:33;;;;;;;5.35;2.42;;;16.70;95.00;;;;;;5030748;28;20036;-45
2023/04/01 13:33:32;;;;;;;5.25;2.45;;;16.30;95.50;;;;;;5028044;28;20037;-43
2023/04/01 13:36:00;;;;;;;4.63;2.50;;;16.10;95.80;;;;;;5024464;28;20050;-45
2023/04/01 13:38:38;;;;;;;4.38;2.22;;;15.90;97.00;;;;;;5030552;28;20061;-45
2023/04/01 13:41:41;;;;;;;5.45;2.50;;;15.80;96.60;;;;;;5030515;28;20022;-47